Time;durP1;ratioP1;P1;durP2;ratioP2;P2;SDS_P1;SDS_P2;PMS_P1;PMS_P2;Temp;Humidity;BMP_temperature;BMP_pressure;BME280_temperature;BME280_humidity;BME280_pressure;Samples;Min_cycle;Max_cycle;Signal;HPM_P1;HPM_P2
2021/09/04 00:00:24;;;;;;;32.75;18.13;;;15.30;95.20;;;;;;4927955;28;20070;-85
2021/09/04 00:02:50;;;;;;;34.22;18.27;;;15.20;95.00;;;;;;4909467;28;20026;-84
2021/09/04 00:05:15;;;;;;;29.38;17.70;;;15.10;95.80;;;;;;4926177;29;20487;-84
2021/09/04 00:07:41;;;;;;;27.67;16.48;;;15.20;96.30;;;;;;4938350;28;20039;-84
2021/09/04 00:10:07;;;;;;;27.48;17.63;;;15.30;95.30;;;;;;4916878;28;20046;-84
2021/09/04 00:12:32;;;;;;;31.50;16.73;;;15.20;97.20;;;;;;4937369;28;20575;-85
2021/09/04 00:14:58;;;;;;;28.52;16.95;;;15.40;95.40;;;;;;4918234;29;20059;-84
2021/09/04 00:17:24;;;;;;;37.28;18.33;;;15.30;94.80;;;;;;4930209;29;20492;-85
2021/09/04 00:19:50;;;;;;;27.40;16.58;;;15.30;95.40;;;;;;4929545;28;20046;-84
2021/09/04 00:22:15;;;;;;;29.02;17.17;;;15.20;95.40;;;;;;4918584;29;20121;-84
2021/09/04 00:24:41;;;;;;;33.05;18.23;;;15.20;95.60;;;;;;4918015;29;20636;-85
2021/09/04 00:27:06;;;;;;;26.08;17.33;;;15.10;94.90;;;;;;4928968;29;20504;-85
2021/09/04 00:29:33;;;;;;;27.45;17.45;;;15.00;94.80;;;;;;4916434;29;20424;-84
2021/09/04 00:31:58;;;;;;;30.55;16.00;;;15.00;95.30;;;;;;4913306;29;20479;-85
2021/09/04 00:34:24;;;;;;;29.60;17.65;;;14.90;95.70;;;;;;4928291;29;20090;-85
2021/09/04 00:36:50;;;;;;;31.52;18.00;;;14.80;96.30;;;;;;4908148;29;20047;-86
2021/09/04 00:39:15;;;;;;;30.05;17.02;;;14.80;95.70;;;;;;4894991;29;20036;-85
2021/09/04 00:41:41;;;;;;;28.05;16.88;;;14.80;96.60;;;;;;4894233;29;20039;-85
2021/09/04 00:44:07;;;;;;;31.92;17.05;;;14.80;95.50;;;;;;4922826;29;20482;-85
2021/09/04 00:46:33;;;;;;;29.60;17.88;;;14.70;95.40;;;;;;4888340;29;20050;-84
2021/09/04 00:48:58;;;;;;;29.42;17.10;;;14.70;95.90;;;;;;4934451;29;20035;-85
2021/09/04 00:51:26;;;;;;;30.45;18.33;;;14.60;96.30;;;;;;4905863;29;20050;-85
2021/09/04 00:53:52;;;;;;;28.20;18.58;;;14.50;96.30;;;;;;4917130;29;20028;-84
2021/09/04 00:56:18;;;;;;;31.92;17.52;;;14.60;97.10;;;;;;4921070;29;20054;-84
2021/09/04 00:58:43;;;;;;;32.45;17.38;;;14.70;95.70;;;;;;4920455;29;20647;-85
2021/09/04 01:01:09;;;;;;;31.92;19.25;;;14.60;96.30;;;;;;4909019;29;20813;-85
2021/09/04 01:03:35;;;;;;;36.35;18.20;;;14.50;97.10;;;;;;4924837;29;20039;-85
2021/09/04 01:06:00;;;;;;;37.53;18.63;;;14.50;96.20;;;;;;4904321;29;20035;-82
2021/09/04 01:08:32;;;;;;;38.97;21.33;;;14.40;97.90;;;;;;4929608;29;20032;-84
2021/09/04 01:10:58;;;;;;;37.90;21.23;;;14.40;97.60;;;;;;4914924;29;20034;-84
2021/09/04 01:13:23;;;;;;;48.80;21.15;;;14.40;97.30;;;;;;4924944;28;20034;-85
2021/09/04 01:15:49;;;;;;;39.88;19.95;;;14.50;98.20;;;;;;4941295;28;20395;-84
2021/09/04 01:18:14;;;;;;;40.63;19.85;;;14.40;97.00;;;;;;4918829;28;20500;-85
2021/09/04 01:20:40;;;;;;;30.17;18.77;;;14.40;96.80;;;;;;4945389;28;20384;-85
2021/09/04 01:23:05;;;;;;;37.75;20.20;;;14.40;97.10;;;;;;4934234;28;20031;-84
2021/09/04 01:25:31;;;;;;;35.40;19.90;;;14.40;96.50;;;;;;4931146;28;20046;-84
2021/09/04 01:27:58;;;;;;;34.22;20.48;;;14.30;97.80;;;;;;4923886;28;20507;-84
2021/09/04 01:30:24;;;;;;;36.90;20.17;;;14.20;98.00;;;;;;4951235;28;20035;-85
2021/09/04 01:32:49;;;;;;;38.08;20.67;;;14.20;97.60;;;;;;4934591;28;20127;-84
2021/09/04 01:35:22;;;;;;;36.00;20.05;;;14.10;97.20;;;;;;4930600;28;20046;-85
2021/09/04 01:37:47;;;;;;;39.28;20.92;;;14.10;97.70;;;;;;4913813;28;20512;-84
2021/09/04 01:40:13;;;;;;;34.75;19.45;;;14.10;97.00;;;;;;4950306;28;20122;-84
2021/09/04 01:42:40;;;;;;;41.47;22.38;;;14.10;97.20;;;;;;4939013;28;20039;-85
2021/09/04 01:45:06;;;;;;;47.75;22.85;;;14.00;97.40;;;;;;4939148;28;20058;-85
2021/09/04 01:47:31;;;;;;;37.65;20.70;;;14.00;97.90;;;;;;4957014;28;20125;-84
2021/09/04 01:49:59;;;;;;;46.72;22.42;;;14.00;97.20;;;;;;4940737;28;20471;-84
2021/09/04 01:52:24;;;;;;;42.67;22.58;;;13.90;98.00;;;;;;4968886;28;20062;-84
2021/09/04 01:54:50;;;;;;;39.22;23.45;;;13.90;98.10;;;;;;4940174;28;20079;-84
2021/09/04 01:57:16;;;;;;;43.30;23.33;;;13.90;97.50;;;;;;4944627;28;20054;-85
2021/09/04 01:59:41;;;;;;;38.25;20.95;;;13.80;97.50;;;;;;4942670;28;20042;-84
2021/09/04 02:02:07;;;;;;;43.38;22.23;;;13.90;97.80;;;;;;4957033;28;20046;-85
2021/09/04 02:04:33;;;;;;;52.10;24.23;;;13.80;98.60;;;;;;4940235;28;20038;-84
2021/09/04 02:06:59;;;;;;;36.53;21.55;;;13.80;98.40;;;;;;4928808;28;20032;-84
2021/09/04 02:09:24;;;;;;;37.33;22.00;;;13.80;97.50;;;;;;4924716;28;20061;-85
2021/09/04 02:11:50;;;;;;;38.33;20.45;;;13.80;98.20;;;;;;4943474;28;20057;-84
2021/09/04 02:14:22;;;;;;;42.85;21.70;;;13.70;97.40;;;;;;4938275;28;20545;-84
2021/09/04 02:16:47;;;;;;;33.80;19.90;;;13.70;99.50;;;;;;4928415;28;20035;-84
2021/09/04 02:19:13;;;;;;;38.13;19.67;;;13.80;98.00;;;;;;4931617;28;20062;-84
2021/09/04 02:21:38;;;;;;;39.85;22.92;;;13.70;98.40;;;;;;4953999;28;20473;-85
2021/09/04 02:24:04;;;;;;;49.33;22.67;;;13.70;98.70;;;;;;4954969;28;20046;-83
2021/09/04 02:26:29;;;;;;;39.90;22.15;;;13.60;98.30;;;;;;4919313;29;20114;-84
2021/09/04 02:28:55;;;;;;;38.45;20.80;;;13.60;99.50;;;;;;4931833;28;20471;-84
2021/09/04 02:31:24;;;;;;;45.10;22.25;;;13.70;98.60;;;;;;4934830;28;20030;-84
2021/09/04 02:33:51;;;;;;;46.55;23.98;;;13.80;98.00;;;;;;4926082;29;20094;-84
2021/09/04 02:36:16;;;;;;;48.88;24.83;;;13.70;99.10;;;;;;4898583;29;20039;-85
2021/09/04 02:38:42;;;;;;;45.78;24.08;;;13.70;99.00;;;;;;4919392;29;20046;-85
2021/09/04 02:41:07;;;;;;;37.70;20.58;;;13.80;99.80;;;;;;4898659;28;20031;-84
2021/09/04 02:43:33;;;;;;;57.30;26.05;;;13.80;99.00;;;;;;4943340;29;20027;-84
2021/09/04 02:45:58;;;;;;;57.40;27.40;;;13.80;98.60;;;;;;4938431;28;20030;-85
2021/09/04 02:48:24;;;;;;;67.13;32.38;;;13.90;98.40;;;;;;4929946;29;20071;-84
2021/09/04 02:50:49;;;;;;;68.82;33.40;;;13.90;98.50;;;;;;4912100;29;20503;-84
2021/09/04 02:53:15;;;;;;;74.50;34.10;;;13.90;98.60;;;;;;4918187;29;20031;-84
2021/09/04 02:55:40;;;;;;;66.93;31.83;;;13.90;98.30;;;;;;4902960;29;20039;-84
2021/09/04 02:58:06;;;;;;;79.40;35.70;;;13.90;99.10;;;;;;4915205;29;20035;-84
2021/09/04 03:00:32;;;;;;;77.53;36.67;;;14.10;98.60;;;;;;4918697;29;20043;-81
2021/09/04 03:02:57;;;;;;;79.57;38.05;;;14.00;98.70;;;;;;4915396;29;20035;-82
2021/09/04 03:05:24;;;;;;;74.38;36.78;;;14.00;98.60;;;;;;4913187;29;20097;-81
2021/09/04 03:07:50;;;;;;;79.47;38.63;;;14.00;98.50;;;;;;4916258;29;20031;-82
2021/09/04 03:10:15;;;;;;;83.53;39.15;;;14.10;98.90;;;;;;4915435;29;20097;-81
2021/09/04 03:12:42;;;;;;;83.35;38.08;;;14.10;99.20;;;;;;4929463;29;20075;-82
2021/09/04 03:15:10;;;;;;;73.72;36.88;;;14.10;98.50;;;;;;4920842;29;20036;-81
2021/09/04 03:17:35;;;;;;;81.22;39.03;;;14.30;98.40;;;;;;4916718;29;20028;-82
2021/09/04 03:20:01;;;;;;;89.15;38.10;;;14.20;98.60;;;;;;4930817;29;20377;-81
2021/09/04 03:22:27;;;;;;;79.65;40.08;;;14.10;98.60;;;;;;4924777;29;20028;-81
2021/09/04 03:24:52;;;;;;;84.32;39.50;;;14.20;98.50;;;;;;4892192;29;20039;-82
2021/09/04 03:27:18;;;;;;;80.88;39.35;;;14.20;98.50;;;;;;4911743;29;20037;-83
2021/09/04 03:29:43;;;;;;;83.70;39.88;;;14.20;98.90;;;;;;4914428;29;20118;-84
2021/09/04 03:32:09;;;;;;;77.40;38.15;;;14.20;98.50;;;;;;4909950;29;20083;-83
2021/09/04 03:34:34;;;;;;;89.03;40.13;;;14.30;99.20;;;;;;4915012;29;20574;-83
2021/09/04 03:37:00;;;;;;;91.72;41.50;;;14.30;99.00;;;;;;4910418;29;20369;-81
2021/09/04 03:39:26;;;;;;;85.97;39.95;;;14.30;98.80;;;;;;4923447;29;21584;-81
2021/09/04 03:41:51;;;;;;;82.43;37.60;;;14.30;98.60;;;;;;4891748;29;20115;-82
2021/09/04 03:44:17;;;;;;;79.18;38.65;;;14.30;98.50;;;;;;4908526;29;20074;-80
2021/09/04 03:46:42;;;;;;;82.05;39.28;;;14.30;98.70;;;;;;4914401;29;20051;-82
2021/09/04 03:49:08;;;;;;;88.28;38.83;;;14.30;98.90;;;;;;4906593;29;20130;-82
2021/09/04 03:51:52;;;;;;;72.05;36.67;;;14.30;99.00;;;;;;4915665;28;20038;-82
2021/09/04 03:54:18;;;;;;;88.10;38.00;;;14.30;98.60;;;;;;4947423;28;20114;-82
2021/09/04 03:56:43;;;;;;;76.35;36.78;;;14.30;98.70;;;;;;4933947;28;20045;-82
2021/09/04 03:59:09;;;;;;;80.55;36.55;;;14.20;98.80;;;;;;4952032;28;20039;-80
2021/09/04 04:01:35;;;;;;;76.47;36.65;;;14.20;98.90;;;;;;4938182;28;20093;-80
2021/09/04 04:04:00;;;;;;;73.60;36.38;;;14.20;98.60;;;;;;4938395;28;20023;-80
2021/09/04 04:06:26;;;;;;;73.50;34.78;;;14.30;98.50;;;;;;4929348;29;20059;-80
2021/09/04 04:08:51;;;;;;;70.40;36.47;;;14.30;98.50;;;;;;4933434;28;20126;-80
2021/09/04 04:11:17;;;;;;;73.57;34.83;;;14.30;98.60;;;;;;4938899;28;20077;-80
2021/09/04 04:13:42;;;;;;;77.43;39.88;;;14.30;98.50;;;;;;4924784;28;20031;-81
2021/09/04 04:16:08;;;;;;;73.38;35.03;;;14.30;98.70;;;;;;4961825;28;20104;-82
2021/09/04 04:18:33;;;;;;;68.13;35.42;;;14.30;98.70;;;;;;4946122;28;20548;-82
2021/09/04 04:20:59;;;;;;;76.40;36.85;;;14.30;99.20;;;;;;4961370;28;20710;-82
2021/09/04 04:23:25;;;;;;;72.65;35.38;;;14.30;98.60;;;;;;4930243;28;20034;-83
2021/09/04 04:25:50;;;;;;;68.57;34.60;;;14.20;98.60;;;;;;4927662;28;20437;-81
2021/09/04 04:28:17;;;;;;;72.05;37.75;;;14.20;98.70;;;;;;4941823;28;20082;-81
2021/09/04 04:30:43;;;;;;;70.68;37.08;;;14.20;98.60;;;;;;4947300;28;20035;-81
2021/09/04 04:33:09;;;;;;;78.85;35.70;;;14.20;98.80;;;;;;4909744;29;20103;-81
2021/09/04 04:35:34;;;;;;;74.30;37.17;;;14.20;99.10;;;;;;4929013;29;20423;-82
2021/09/04 04:38:00;;;;;;;77.78;36.85;;;14.10;99.30;;;;;;4942111;28;20077;-82
2021/09/04 04:40:25;;;;;;;67.72;33.88;;;14.10;99.20;;;;;;4927752;28;20669;-82
2021/09/04 04:42:51;;;;;;;71.00;36.35;;;14.20;99.80;;;;;;4917613;29;20043;-83
2021/09/04 04:45:16;;;;;;;67.93;34.83;;;14.10;99.20;;;;;;4920763;29;20031;-82
2021/09/04 04:47:42;;;;;;;75.00;37.30;;;14.10;98.90;;;;;;4898963;29;20081;-83
2021/09/04 04:50:08;;;;;;;78.25;35.83;;;14.20;98.70;;;;;;4905598;29;20063;-82
2021/09/04 04:52:34;;;;;;;75.30;37.67;;;14.20;98.70;;;;;;4954907;28;20038;-82
2021/09/04 04:54:59;;;;;;;78.45;36.55;;;14.20;98.60;;;;;;4958895;28;20423;-82
2021/09/04 04:57:26;;;;;;;80.68;39.65;;;14.20;99.30;;;;;;4929213;28;20043;-82
2021/09/04 04:59:51;;;;;;;82.40;39.67;;;14.10;98.90;;;;;;4957817;28;20058;-81
2021/09/04 05:02:17;;;;;;;87.68;40.13;;;14.10;99.40;;;;;;4927842;28;20061;-82
2021/09/04 05:04:42;;;;;;;91.53;38.92;;;14.10;99.20;;;;;;4927224;28;20039;-82
2021/09/04 05:07:08;;;;;;;88.10;40.15;;;14.10;99.10;;;;;;4959065;28;20038;-82
2021/09/04 05:09:33;;;;;;;86.65;40.72;;;14.10;99.90;;;;;;4928296;28;20027;-83
2021/09/04 05:11:59;;;;;;;79.20;40.72;;;14.10;99.30;;;;;;4938418;28;20534;-82
2021/09/04 05:14:25;;;;;;;85.28;37.80;;;14.10;99.30;;;;;;4942682;28;20477;-82
2021/09/04 05:16:50;;;;;;;86.53;38.67;;;14.10;99.20;;;;;;4949387;28;20043;-83
2021/09/04 05:19:16;;;;;;;84.68;38.28;;;14.10;99.30;;;;;;4939591;28;20035;-82
2021/09/04 05:21:42;;;;;;;90.20;40.25;;;14.10;99.20;;;;;;4944167;28;20065;-82
2021/09/04 05:24:08;;;;;;;86.75;38.03;;;14.10;99.30;;;;;;4928733;29;20039;-82
2021/09/04 05:26:33;;;;;;;84.30;38.40;;;14.10;99.20;;;;;;4952099;28;20053;-84
2021/09/04 05:28:59;;;;;;;84.20;37.38;;;14.10;99.10;;;;;;4932432;28;20056;-83
2021/09/04 05:31:25;;;;;;;75.68;35.25;;;14.10;99.80;;;;;;4933342;28;20062;-82
2021/09/04 05:33:50;;;;;;;85.00;37.15;;;14.10;99.60;;;;;;4942924;28;20027;-82
2021/09/04 05:36:16;;;;;;;86.75;39.22;;;14.00;99.10;;;;;;4939443;28;20027;-82
2021/09/04 05:38:41;;;;;;;77.45;34.30;;;14.10;99.50;;;;;;4939111;28;20127;-83
2021/09/04 05:41:09;;;;;;;73.68;34.67;;;14.20;99.30;;;;;;4939485;28;20114;-82
2021/09/04 05:43:34;;;;;;;74.10;35.88;;;14.00;99.30;;;;;;4918890;29;20036;-82
2021/09/04 05:46:02;;;;;;;84.68;35.72;;;14.10;99.50;;;;;;4939434;28;20027;-82
2021/09/04 05:48:27;;;;;;;73.10;34.55;;;14.10;99.40;;;;;;4916272;29;20035;-83
2021/09/04 05:50:53;;;;;;;65.88;33.60;;;14.10;99.30;;;;;;4919690;29;20141;-82
2021/09/04 05:53:18;;;;;;;65.90;33.05;;;14.10;99.20;;;;;;4918677;29;20035;-82
2021/09/04 05:55:47;;;;;;;75.78;34.70;;;14.10;99.60;;;;;;4912091;29;20028;-82
2021/09/04 05:58:14;;;;;;;71.45;34.78;;;14.10;99.70;;;;;;4936908;28;20034;-85
2021/09/04 06:00:39;;;;;;;67.85;32.28;;;14.10;99.60;;;;;;4909221;29;20106;-83
2021/09/04 06:03:05;;;;;;;80.40;35.55;;;14.10;99.50;;;;;;4898547;28;20110;-84
2021/09/04 06:05:31;;;;;;;86.10;40.83;;;14.10;99.60;;;;;;4917911;29;20055;-83
2021/09/04 06:07:57;;;;;;;87.32;36.90;;;14.10;99.60;;;;;;4917375;29;20554;-86
2021/09/04 06:10:22;;;;;;;96.45;40.85;;;14.10;99.30;;;;;;4926158;28;20066;-85
2021/09/04 06:12:48;;;;;;;91.28;40.45;;;14.10;99.30;;;;;;4939203;28;20070;-85
2021/09/04 06:15:13;;;;;;;94.70;39.40;;;14.10;99.30;;;;;;4937662;28;20030;-86
2021/09/04 06:17:39;;;;;;;98.45;36.75;;;14.10;99.90;;;;;;4939964;28;20037;-84
2021/09/04 06:20:06;;;;;;;105.95;40.08;;;14.20;99.10;;;;;;4921581;28;20057;-85
2021/09/04 06:22:31;;;;;;;97.63;40.60;;;14.10;99.50;;;;;;4931851;29;20046;-83
2021/09/04 06:24:57;;;;;;;93.50;38.80;;;14.10;99.20;;;;;;4939760;28;20772;-83
2021/09/04 06:27:22;;;;;;;92.47;36.88;;;14.10;99.20;;;;;;4917336;28;20031;-84
2021/09/04 06:29:48;;;;;;;97.78;39.13;;;14.10;99.30;;;;;;4926934;29;20115;-84
2021/09/04 06:32:14;;;;;;;87.30;35.65;;;14.20;99.10;;;;;;4951418;28;20055;-83
2021/09/04 06:34:41;;;;;;;92.72;36.92;;;14.10;99.30;;;;;;4953178;28;20118;-83
2021/09/04 06:37:06;;;;;;;78.15;33.88;;;14.10;99.30;;;;;;4925079;28;20027;-83
2021/09/04 06:39:32;;;;;;;103.90;40.55;;;14.20;98.90;;;;;;4935389;28;20036;-82
2021/09/04 06:42:03;;;;;;;94.45;36.65;;;14.20;99.50;;;;;;4950341;28;20474;-83
2021/09/04 06:44:29;;;;;;;102.43;37.15;;;14.20;99.60;;;;;;4938438;28;20043;-83
2021/09/04 06:46:55;;;;;;;92.38;37.40;;;14.20;99.90;;;;;;4946215;28;20039;-84
2021/09/04 06:49:20;;;;;;;84.28;35.50;;;14.10;99.60;;;;;;4904378;29;20027;-83
2021/09/04 06:51:46;;;;;;;78.65;34.78;;;14.20;99.70;;;;;;4937834;28;20053;-83
2021/09/04 06:54:11;;;;;;;72.93;32.70;;;14.20;99.90;;;;;;4930074;28;20387;-86
2021/09/04 06:56:37;;;;;;;77.20;32.50;;;14.20;99.80;;;;;;4954056;28;20461;-85
2021/09/04 06:59:02;;;;;;;68.75;31.05;;;14.10;99.90;;;;;;4934473;29;20070;-85
2021/09/04 07:01:28;;;;;;;68.22;30.80;;;14.20;99.80;;;;;;4932214;28;20074;-82
2021/09/04 07:03:53;;;;;;;54.25;28.67;;;14.30;99.90;;;;;;4917105;28;20059;-83
2021/09/04 07:06:19;;;;;;;46.33;24.88;;;14.20;99.90;;;;;;4919405;29;20106;-82
2021/09/04 07:08:45;;;;;;;45.03;24.58;;;14.20;99.90;;;;;;4919549;28;20147;-83
2021/09/04 07:11:10;;;;;;;47.65;25.10;;;14.20;99.90;;;;;;4894951;28;1089476;-83
2021/09/04 07:13:36;;;;;;;44.55;24.48;;;14.40;99.90;;;;;;4908128;28;20026;-82
2021/09/04 07:16:01;;;;;;;44.63;23.55;;;14.30;99.90;;;;;;4931386;28;20020;-82
2021/09/04 07:18:27;;;;;;;47.97;24.48;;;14.30;99.90;;;;;;4937223;28;20031;-82
2021/09/04 07:20:52;;;;;;;46.92;22.85;;;14.40;99.90;;;;;;4936696;28;20034;-83
2021/09/04 07:23:18;;;;;;;55.67;23.95;;;14.50;99.90;;;;;;4920880;28;20031;-83
2021/09/04 07:25:44;;;;;;;46.42;24.25;;;14.50;99.90;;;;;;4948016;28;20042;-83
2021/09/04 07:28:10;;;;;;;48.83;24.75;;;14.60;99.90;;;;;;4936753;28;20041;-83
2021/09/04 07:30:36;;;;;;;41.90;23.52;;;14.60;99.80;;;;;;4936315;28;20054;-84
2021/09/04 07:33:01;;;;;;;47.00;24.52;;;14.70;99.90;;;;;;4953294;28;20027;-83
2021/09/04 07:35:27;;;;;;;47.83;25.30;;;14.70;99.90;;;;;;4935286;28;20035;-83
2021/09/04 07:37:52;;;;;;;51.22;26.95;;;14.90;99.80;;;;;;4917961;28;20027;-83
2021/09/04 07:40:18;;;;;;;40.40;22.45;;;14.80;99.90;;;;;;4917531;29;20036;-83
2021/09/04 07:42:44;;;;;;;38.85;22.63;;;14.90;99.90;;;;;;4918579;29;20032;-83
2021/09/04 07:45:09;;;;;;;41.95;23.48;;;15.00;99.90;;;;;;4937860;28;20050;-83
2021/09/04 07:47:35;;;;;;;42.47;24.17;;;14.90;99.90;;;;;;4921749;29;20035;-84
2021/09/04 07:50:01;;;;;;;40.53;21.98;;;15.00;99.90;;;;;;4959114;28;20110;-85
2021/09/04 07:52:26;;;;;;;37.70;21.83;;;15.10;99.90;;;;;;4937194;29;20127;-85
2021/09/04 07:54:52;;;;;;;42.60;23.23;;;15.10;99.90;;;;;;4928713;28;20573;-82
2021/09/04 07:57:18;;;;;;;41.42;23.95;;;15.20;99.90;;;;;;4918308;29;20031;-84
2021/09/04 07:59:43;;;;;;;38.30;21.25;;;15.20;99.90;;;;;;4934552;28;20035;-84
2021/09/04 08:02:26;;;;;;;37.55;20.73;;;15.30;99.90;;;;;;4941721;28;20031;-84
2021/09/04 08:04:52;;;;;;;35.50;19.95;;;15.40;99.90;;;;;;4944158;28;20089;-83
2021/09/04 08:07:17;;;;;;;33.45;20.48;;;15.40;99.90;;;;;;4924687;28;20486;-84
2021/09/04 08:09:43;;;;;;;35.78;21.13;;;15.40;99.90;;;;;;4940546;28;20023;-83
2021/09/04 08:12:08;;;;;;;35.85;20.90;;;15.50;99.90;;;;;;4948536;28;20046;-83
2021/09/04 08:14:34;;;;;;;32.78;19.13;;;15.60;99.90;;;;;;4936824;28;20054;-83
2021/09/04 08:17:00;;;;;;;33.58;19.23;;;15.70;99.90;;;;;;4939696;28;20462;-84
2021/09/04 08:19:26;;;;;;;31.85;18.83;;;15.70;99.90;;;;;;4938653;28;20129;-84
2021/09/04 08:21:51;;;;;;;33.55;18.17;;;15.70;99.90;;;;;;4945136;28;20035;-84
2021/09/04 08:24:17;;;;;;;30.85;18.85;;;15.80;99.90;;;;;;4959329;28;20503;-84
2021/09/04 08:26:43;;;;;;;31.73;18.02;;;15.90;99.90;;;;;;4953699;28;20067;-84
2021/09/04 08:29:09;;;;;;;30.05;18.23;;;16.00;99.80;;;;;;4946136;28;20502;-83
2021/09/04 08:31:35;;;;;;;34.30;18.75;;;16.10;99.60;;;;;;4915417;29;20205;-84
2021/09/04 08:34:09;;;;;;;33.17;18.60;;;16.20;99.80;;;;;;4919339;29;20023;-84
2021/09/04 08:36:34;;;;;;;37.20;18.77;;;16.30;99.90;;;;;;4918057;28;20039;-84
2021/09/04 08:39:00;;;;;;;31.98;18.63;;;16.30;99.90;;;;;;4928029;29;20039;-84
2021/09/04 08:41:25;;;;;;;33.25;18.42;;;16.40;99.90;;;;;;4923116;28;20117;-84
2021/09/04 08:43:52;;;;;;;33.47;19.13;;;16.50;99.90;;;;;;4944361;28;20095;-83
2021/09/04 08:46:18;;;;;;;31.50;17.95;;;16.60;99.90;;;;;;4921787;29;20028;-83
2021/09/04 08:48:45;;;;;;;30.33;18.02;;;16.70;99.90;;;;;;4920436;29;20788;-83
2021/09/04 08:51:11;;;;;;;34.75;18.17;;;16.70;99.80;;;;;;4934177;29;20066;-83
2021/09/04 08:53:36;;;;;;;30.25;17.85;;;16.90;99.90;;;;;;4935647;29;20051;-84
2021/09/04 08:56:02;;;;;;;33.13;19.77;;;17.00;99.90;;;;;;4904398;29;20019;-84
2021/09/04 08:58:28;;;;;;;32.30;18.58;;;17.10;99.90;;;;;;4919952;29;20024;-83
2021/09/04 09:00:53;;;;;;;34.42;19.33;;;17.10;99.80;;;;;;4931759;29;20106;-83
2021/09/04 09:03:20;;;;;;;28.95;16.27;;;17.20;99.60;;;;;;4900947;29;20066;-84
2021/09/04 09:05:46;;;;;;;32.65;19.52;;;17.20;99.40;;;;;;4915819;29;20375;-84
2021/09/04 09:08:26;;;;;;;31.40;18.42;;;17.30;99.50;;;;;;4921345;29;20039;-84
2021/09/04 09:10:52;;;;;;;30.75;17.55;;;17.40;99.40;;;;;;4920123;29;20432;-84
2021/09/04 09:13:21;;;;;;;34.38;18.40;;;17.50;99.40;;;;;;4904655;29;20042;-83
2021/09/04 09:15:48;;;;;;;32.60;17.42;;;17.50;99.20;;;;;;4912980;29;20127;-83
2021/09/04 09:18:16;;;;;;;34.45;18.98;;;17.60;99.30;;;;;;4935371;29;20035;-83
2021/09/04 09:20:44;;;;;;;30.83;18.35;;;17.80;99.30;;;;;;4913955;29;20514;-83
2021/09/04 09:23:14;;;;;;;31.30;17.75;;;17.80;99.30;;;;;;4917092;29;20040;-83
2021/09/04 09:25:40;;;;;;;34.53;18.50;;;17.90;99.30;;;;;;4914891;29;20126;-85
2021/09/04 09:28:10;;;;;;;32.88;19.67;;;18.00;98.90;;;;;;4919799;29;20042;-84
2021/09/04 09:30:48;;;;;;;33.88;18.90;;;18.20;99.20;;;;;;4933488;29;20032;-84
2021/09/04 09:33:22;;;;;;;31.33;18.92;;;18.20;98.80;;;;;;4904184;29;20048;-83
2021/09/04 09:35:52;;;;;;;33.28;19.67;;;18.30;98.80;;;;;;4903518;29;20038;-84
2021/09/04 09:38:19;;;;;;;32.00;18.55;;;18.40;99.00;;;;;;4917811;29;20040;-84
2021/09/04 09:40:44;;;;;;;33.65;18.98;;;18.60;98.70;;;;;;4931973;29;20543;-85
2021/09/04 09:43:14;;;;;;;26.77;16.75;;;18.70;98.50;;;;;;4914434;29;20107;-84
2021/09/04 09:46:01;;;;;;;29.25;18.52;;;18.80;98.40;;;;;;4922135;29;20055;-84
2021/09/04 09:48:27;;;;;;;34.17;19.88;;;18.80;97.70;;;;;;4936986;28;20042;-84
2021/09/04 09:50:54;;;;;;;32.35;19.27;;;18.90;97.90;;;;;;4957167;28;20035;-83
2021/09/04 09:53:21;;;;;;;33.22;20.13;;;18.90;97.80;;;;;;4912816;29;20562;-83
2021/09/04 09:55:47;;;;;;;33.58;18.48;;;18.90;97.60;;;;;;4937157;29;20103;-83
2021/09/04 09:58:13;;;;;;;32.35;19.48;;;19.00;97.60;;;;;;4913905;28;20379;-83
2021/09/04 10:00:40;;;;;;;30.17;18.83;;;19.10;97.80;;;;;;4951494;28;20103;-84
2021/09/04 10:03:07;;;;;;;30.02;17.98;;;19.10;97.50;;;;;;4938049;28;20038;-84
2021/09/04 10:05:33;;;;;;;30.63;17.98;;;19.30;97.60;;;;;;4922588;28;20030;-83
2021/09/04 10:07:58;;;;;;;29.25;18.45;;;19.30;97.40;;;;;;4956106;28;20105;-83
2021/09/04 10:10:26;;;;;;;34.78;19.90;;;19.40;97.30;;;;;;4937492;28;20054;-84
2021/09/04 10:12:51;;;;;;;36.38;20.95;;;19.50;97.10;;;;;;4955909;28;20043;-84
2021/09/04 10:15:17;;;;;;;35.75;20.05;;;19.60;97.10;;;;;;4917873;28;20483;-85
2021/09/04 10:17:43;;;;;;;29.38;19.33;;;19.60;96.80;;;;;;4936081;28;20054;-85
2021/09/04 10:20:09;;;;;;;34.70;19.58;;;19.70;96.80;;;;;;4940099;28;20069;-85
2021/09/04 10:22:35;;;;;;;30.80;19.20;;;19.80;96.70;;;;;;4917592;29;20035;-86
2021/09/04 10:25:02;;;;;;;28.75;18.30;;;20.00;96.50;;;;;;4928204;28;20030;-85
2021/09/04 10:27:30;;;;;;;34.95;18.92;;;20.00;96.70;;;;;;4920648;29;20488;-85
2021/09/04 10:29:56;;;;;;;30.65;19.05;;;20.20;96.50;;;;;;4932140;29;20037;-85
2021/09/04 10:32:22;;;;;;;31.90;18.83;;;20.40;96.60;;;;;;4931574;29;20543;-85
2021/09/04 10:34:48;;;;;;;30.23;18.35;;;20.40;95.90;;;;;;4940788;28;20035;-85
2021/09/04 10:37:14;;;;;;;26.23;18.33;;;20.50;95.90;;;;;;4954012;28;20073;-86
2021/09/04 10:39:48;;;;;;;31.15;18.83;;;20.60;96.30;;;;;;4957834;28;20355;-85
2021/09/04 10:42:15;;;;;;;35.53;21.48;;;20.80;95.90;;;;;;4953473;28;20038;-85
2021/09/04 10:44:41;;;;;;;31.55;19.25;;;20.90;95.50;;;;;;4945276;28;20070;-84
2021/09/04 10:47:09;;;;;;;30.45;20.42;;;21.00;95.60;;;;;;4930704;28;20474;-85
2021/09/04 10:49:58;;;;;;;32.08;19.15;;;21.00;95.60;;;;;;4924596;29;20035;-85
2021/09/04 10:52:54;;;;;;;34.42;19.25;;;21.20;95.90;;;;;;4917256;28;20031;-84
2021/09/04 10:55:24;;;;;;;32.90;21.23;;;21.20;95.20;;;;;;4921020;28;20023;-85
2021/09/04 10:57:51;;;;;;;37.65;21.35;;;21.40;95.00;;;;;;4923335;29;20035;-85
2021/09/04 11:00:26;;;;;;;36.28;21.92;;;21.50;94.90;;;;;;4918607;28;20062;-86
2021/09/04 11:02:58;;;;;;;36.47;23.42;;;21.50;94.20;;;;;;4920940;28;20046;-85
2021/09/04 11:05:40;;;;;;;40.03;23.17;;;21.60;94.40;;;;;;4267856;28;10000462;-86
2021/09/04 11:08:28;;;;;;;41.60;27.67;;;21.60;94.30;;;;;;4952824;28;20097;-84
2021/09/04 11:11:26;;;;;;;42.38;26.02;;;21.70;93.90;;;;;;4920227;28;20034;-85
2021/09/04 11:13:54;;;;;;;39.08;23.77;;;21.70;93.90;;;;;;4944049;28;20043;-86
2021/09/04 11:16:40;;;;;;;35.90;21.65;;;21.80;93.60;;;;;;4924316;29;20522;-84
2021/09/04 11:19:16;;;;;;;29.88;19.63;;;21.80;94.00;;;;;;4939548;28;20038;-85
2021/09/04 11:21:54;;;;;;;;;;;21.90;93.80;;;;;;4939457;28;20030;-85
2021/09/04 11:24:23;;;;;;;33.42;20.73;;;22.00;93.60;;;;;;4949055;28;20000;-85
2021/09/04 11:26:51;;;;;;;37.28;22.38;;;22.10;93.70;;;;;;4928413;28;20109;-85
2021/09/04 11:29:26;;;;;;;37.10;22.27;;;22.30;93.50;;;;;;4929985;28;20039;-85
2021/09/04 11:31:56;;;;;;;32.88;19.77;;;22.40;93.80;;;;;;4946498;28;20034;-85
2021/09/04 11:34:42;;;;;;;29.35;19.02;;;22.60;93.80;;;;;;4954729;28;20030;-84
2021/09/04 11:37:20;;;;;;;36.90;24.40;;;22.70;93.90;;;;;;4935800;28;20518;-85
2021/09/04 11:39:46;;;;;;;37.97;25.40;;;22.90;93.10;;;;;;4938563;28;20125;-86
2021/09/04 11:42:15;;;;;;;38.45;24.48;;;23.10;92.50;;;;;;4929097;28;20051;-85
2021/09/04 11:44:47;;;;;;;45.17;26.77;;;23.20;93.20;;;;;;4939952;28;20442;-85
2021/09/04 11:47:13;;;;;;;45.60;26.90;;;23.40;92.80;;;;;;4920665;28;20035;-85
2021/09/04 11:49:43;;;;;;;40.72;24.38;;;23.50;92.10;;;;;;4934334;28;20070;-84
2021/09/04 11:52:18;;;;;;;38.40;23.67;;;23.50;92.50;;;;;;4931479;28;20351;-85
2021/09/04 11:54:44;;;;;;;36.17;25.00;;;23.60;91.90;;;;;;4948789;28;20031;-85
2021/09/04 11:57:26;;;;;;;42.65;27.40;;;23.70;91.70;;;;;;4949001;28;20086;-85
2021/09/04 12:00:01;;;;;;;40.08;28.75;;;23.70;91.80;;;;;;4960396;28;20043;-85
2021/09/04 12:02:26;;;;;;;43.50;30.07;;;23.80;90.20;;;;;;4940757;28;20043;-85
2021/09/04 12:04:53;;;;;;;45.25;28.83;;;23.80;90.40;;;;;;4948114;28;20118;-85
2021/09/04 12:07:19;;;;;;;47.33;28.05;;;23.80;90.90;;;;;;4919698;28;20528;-85
2021/09/04 12:09:47;;;;;;;50.40;29.98;;;23.90;91.00;;;;;;4915530;28;20038;-85
2021/09/04 12:12:12;;;;;;;46.97;29.00;;;24.00;90.00;;;;;;4927034;28;20047;-85
2021/09/04 12:14:38;;;;;;;42.28;25.60;;;24.10;89.20;;;;;;4941887;28;20041;-85
2021/09/04 12:17:06;;;;;;;41.03;29.00;;;24.10;90.60;;;;;;4923636;28;20061;-85
2021/09/04 12:19:38;;;;;;;47.35;29.08;;;24.20;90.00;;;;;;4936051;28;20034;-85
2021/09/04 12:22:04;;;;;;;44.67;28.20;;;24.30;89.70;;;;;;4941742;28;20054;-85
2021/09/04 12:24:31;;;;;;;46.80;28.67;;;24.30;90.60;;;;;;4916773;29;20063;-85
2021/09/04 12:26:57;;;;;;;42.38;27.80;;;24.50;90.00;;;;;;4923001;29;20502;-85